sensor_id;sensor_type;location;lat;lon;timestamp;temperature;humidity
76470;DHT22;65305;52.870;13.660;2023-03-14T00:02:20;5.90;64.30
76470;DHT22;65305;52.870;13.660;2023-03-14T00:04:47;5.90;64.30
76470;DHT22;65305;52.870;13.660;2023-03-14T00:07:13;5.90;64.20
76470;DHT22;65305;52.870;13.660;2023-03-14T00:09:40;5.90;64.20
76470;DHT22;65305;52.870;13.660;2023-03-14T00:12:06;5.90;64.10
76470;DHT22;65305;52.870;13.660;2023-03-14T00:14:33;6.00;64.10
76470;DHT22;65305;52.870;13.660;2023-03-14T00:16:59;6.00;64.10
76470;DHT22;65305;52.870;13.660;2023-03-14T00:19:26;5.90;64.20
76470;DHT22;65305;52.870;13.660;2023-03-14T00:21:52;5.90;64.20
76470;DHT22;65305;52.870;13.660;2023-03-14T00:24:18;6.00;64.10
76470;DHT22;65305;52.870;13.660;2023-03-14T00:26:45;5.90;64.10
76470;DHT22;65305;52.870;13.660;2023-03-14T00:29:11;5.90;64.10
76470;DHT22;65305;52.870;13.660;2023-03-14T00:31:38;5.90;64.20
76470;DHT22;65305;52.870;13.660;2023-03-14T00:34:05;6.00;64.20
76470;DHT22;65305;52.870;13.660;2023-03-14T00:36:31;6.00;64.10
76470;DHT22;65305;52.870;13.660;2023-03-14T00:38:58;6.00;64.10
76470;DHT22;65305;52.870;13.660;2023-03-14T00:41:24;5.90;64.00
76470;DHT22;65305;52.870;13.660;2023-03-14T00:43:51;6.00;64.00
76470;DHT22;65305;52.870;13.660;2023-03-14T00:46:17;6.00;64.00
76470;DHT22;65305;52.870;13.660;2023-03-14T00:48:44;6.00;64.00
76470;DHT22;65305;52.870;13.660;2023-03-14T00:51:11;6.00;64.10
76470;DHT22;65305;52.870;13.660;2023-03-14T00:53:39;6.00;64.20
76470;DHT22;65305;52.870;13.660;2023-03-14T00:56:07;6.00;64.20
76470;DHT22;65305;52.870;13.660;2023-03-14T00:58:34;6.00;64.20
76470;DHT22;65305;52.870;13.660;2023-03-14T01:01:21;6.00;64.20
76470;DHT22;65305;52.870;13.660;2023-03-14T01:03:49;6.00;64.10
76470;DHT22;65305;52.870;13.660;2023-03-14T01:06:18;6.00;64.10
76470;DHT22;65305;52.870;13.660;2023-03-14T01:08:45;6.00;64.10
76470;DHT22;65305;52.870;13.660;2023-03-14T01:11:13;6.00;64.10
76470;DHT22;65305;52.870;13.660;2023-03-14T01:13:41;6.00;64.10
76470;DHT22;65305;52.870;13.660;2023-03-14T01:16:08;6.00;64.10
76470;DHT22;65305;52.870;13.660;2023-03-14T01:18:35;6.00;64.20
76470;DHT22;65305;52.870;13.660;2023-03-14T01:21:12;6.00;64.20
76470;DHT22;65305;52.870;13.660;2023-03-14T01:23:40;6.00;64.40
76470;DHT22;65305;52.870;13.660;2023-03-14T01:26:11;6.00;64.30
76470;DHT22;65305;52.870;13.660;2023-03-14T01:28:37;6.00;64.40
76470;DHT22;65305;52.870;13.660;2023-03-14T01:31:04;6.00;64.30
76470;DHT22;65305;52.870;13.660;2023-03-14T01:33:31;6.00;64.30
76470;DHT22;65305;52.870;13.660;2023-03-14T01:35:57;6.00;64.30
76470;DHT22;65305;52.870;13.660;2023-03-14T01:38:24;6.00;64.30
76470;DHT22;65305;52.870;13.660;2023-03-14T01:40:50;6.00;64.40
76470;DHT22;65305;52.870;13.660;2023-03-14T01:43:18;6.00;64.50
76470;DHT22;65305;52.870;13.660;2023-03-14T01:48:20;6.00;64.30
76470;DHT22;65305;52.870;13.660;2023-03-14T01:50:46;6.10;64.40
76470;DHT22;65305;52.870;13.660;2023-03-14T01:53:13;6.00;64.50
76470;DHT22;65305;52.870;13.660;2023-03-14T01:55:40;6.10;64.80
76470;DHT22;65305;52.870;13.660;2023-03-14T01:58:06;6.10;64.80
76470;DHT22;65305;52.870;13.660;2023-03-14T02:00:34;6.10;64.80
76470;DHT22;65305;52.870;13.660;2023-03-14T02:03:09;6.10;65.30
76470;DHT22;65305;52.870;13.660;2023-03-14T02:05:38;6.10;65.10
76470;DHT22;65305;52.870;13.660;2023-03-14T02:08:05;6.10;65.10
76470;DHT22;65305;52.870;13.660;2023-03-14T02:10:43;6.10;65.10
76470;DHT22;65305;52.870;13.660;2023-03-14T02:13:10;6.10;65.40
76470;DHT22;65305;52.870;13.660;2023-03-14T02:15:37;6.10;65.40
76470;DHT22;65305;52.870;13.660;2023-03-14T02:18:04;6.10;65.50
76470;DHT22;65305;52.870;13.660;2023-03-14T02:20:38;6.10;65.30
76470;DHT22;65305;52.870;13.660;2023-03-14T02:23:08;6.10;65.40
76470;DHT22;65305;52.870;13.660;2023-03-14T02:28:04;6.10;65.70
76470;DHT22;65305;52.870;13.660;2023-03-14T02:30:31;6.10;65.50
76470;DHT22;65305;52.870;13.660;2023-03-14T02:33:05;6.10;65.60
76470;DHT22;65305;52.870;13.660;2023-03-14T02:35:55;6.10;65.50
76470;DHT22;65305;52.870;13.660;2023-03-14T02:38:24;6.10;65.80
76470;DHT22;65305;52.870;13.660;2023-03-14T02:40:53;6.10;65.40
76470;DHT22;65305;52.870;13.660;2023-03-14T02:43:19;6.10;65.40
76470;DHT22;65305;52.870;13.660;2023-03-14T02:45:46;6.10;65.60
76470;DHT22;65305;52.870;13.660;2023-03-14T02:48:14;6.10;65.50
76470;DHT22;65305;52.870;13.660;2023-03-14T02:50:42;6.10;65.80
76470;DHT22;65305;52.870;13.660;2023-03-14T02:53:09;6.10;65.70
76470;DHT22;65305;52.870;13.660;2023-03-14T02:55:38;6.10;65.90
76470;DHT22;65305;52.870;13.660;2023-03-14T02:58:05;6.10;65.90
76470;DHT22;65305;52.870;13.660;2023-03-14T03:00:31;6.10;65.70
76470;DHT22;65305;52.870;13.660;2023-03-14T03:02:59;6.10;65.70
76470;DHT22;65305;52.870;13.660;2023-03-14T03:05:37;6.10;65.90
76470;DHT22;65305;52.870;13.660;2023-03-14T03:08:04;6.10;66.00
76470;DHT22;65305;52.870;13.660;2023-03-14T03:10:31;6.10;66.10
76470;DHT22;65305;52.870;13.660;2023-03-14T03:12:58;6.10;66.20
76470;DHT22;65305;52.870;13.660;2023-03-14T03:15:24;6.10;66.10
76470;DHT22;65305;52.870;13.660;2023-03-14T03:17:51;6.10;66.00
76470;DHT22;65305;52.870;13.660;2023-03-14T03:20:17;6.10;66.20
76470;DHT22;65305;52.870;13.660;2023-03-14T03:22:44;6.10;66.50
76470;DHT22;65305;52.870;13.660;2023-03-14T03:25:10;6.10;66.60
76470;DHT22;65305;52.870;13.660;2023-03-14T03:27:37;6.10;66.50
76470;DHT22;65305;52.870;13.660;2023-03-14T03:30:04;6.20;66.60
76470;DHT22;65305;52.870;13.660;2023-03-14T03:32:31;6.20;66.40
76470;DHT22;65305;52.870;13.660;2023-03-14T03:34:58;6.10;66.60
76470;DHT22;65305;52.870;13.660;2023-03-14T03:37:24;6.10;66.10
76470;DHT22;65305;52.870;13.660;2023-03-14T03:39:51;6.10;66.30
76470;DHT22;65305;52.870;13.660;2023-03-14T03:42:17;6.20;66.50
76470;DHT22;65305;52.870;13.660;2023-03-14T03:44:44;6.10;66.70
76470;DHT22;65305;52.870;13.660;2023-03-14T03:47:11;6.20;66.90
76470;DHT22;65305;52.870;13.660;2023-03-14T03:49:37;6.20;67.00
76470;DHT22;65305;52.870;13.660;2023-03-14T03:52:04;6.20;66.90
76470;DHT22;65305;52.870;13.660;2023-03-14T03:54:30;6.10;66.90
76470;DHT22;65305;52.870;13.660;2023-03-14T03:56:56;6.20;66.90
76470;DHT22;65305;52.870;13.660;2023-03-14T03:59:23;6.20;66.60
76470;DHT22;65305;52.870;13.660;2023-03-14T04:01:49;6.20;66.50
76470;DHT22;65305;52.870;13.660;2023-03-14T04:04:16;6.20;66.50
76470;DHT22;65305;52.870;13.660;2023-03-14T04:06:42;6.20;66.70
76470;DHT22;65305;52.870;13.660;2023-03-14T04:09:09;6.20;66.40
76470;DHT22;65305;52.870;13.660;2023-03-14T04:11:36;6.20;66.50
76470;DHT22;65305;52.870;13.660;2023-03-14T04:14:03;6.20;67.20
76470;DHT22;65305;52.870;13.660;2023-03-14T04:16:30;6.20;67.20
76470;DHT22;65305;52.870;13.660;2023-03-14T04:19:00;6.20;66.80
76470;DHT22;65305;52.870;13.660;2023-03-14T04:21:37;6.20;67.00
76470;DHT22;65305;52.870;13.660;2023-03-14T04:24:06;6.20;66.80
76470;DHT22;65305;52.870;13.660;2023-03-14T04:26:33;6.20;67.00
76470;DHT22;65305;52.870;13.660;2023-03-14T04:28:59;6.20;66.40
76470;DHT22;65305;52.870;13.660;2023-03-14T04:31:25;6.20;66.60
76470;DHT22;65305;52.870;13.660;2023-03-14T04:33:51;6.20;66.70
76470;DHT22;65305;52.870;13.660;2023-03-14T04:36:17;6.20;67.10
76470;DHT22;65305;52.870;13.660;2023-03-14T04:38:43;6.20;67.10
76470;DHT22;65305;52.870;13.660;2023-03-14T04:41:10;6.20;67.50
76470;DHT22;65305;52.870;13.660;2023-03-14T04:43:35;6.20;67.10
76470;DHT22;65305;52.870;13.660;2023-03-14T04:46:02;6.20;67.30
76470;DHT22;65305;52.870;13.660;2023-03-14T04:48:28;6.20;67.20
76470;DHT22;65305;52.870;13.660;2023-03-14T04:50:54;6.20;67.50
76470;DHT22;65305;52.870;13.660;2023-03-14T04:53:20;6.20;67.20
76470;DHT22;65305;52.870;13.660;2023-03-14T04:55:50;6.20;67.10
76470;DHT22;65305;52.870;13.660;2023-03-14T04:58:17;6.20;67.50
76470;DHT22;65305;52.870;13.660;2023-03-14T05:00:44;6.20;67.50
76470;DHT22;65305;52.870;13.660;2023-03-14T05:03:10;6.20;67.50
76470;DHT22;65305;52.870;13.660;2023-03-14T05:05:37;6.20;67.30
76470;DHT22;65305;52.870;13.660;2023-03-14T05:08:03;6.20;67.40
76470;DHT22;65305;52.870;13.660;2023-03-14T05:10:30;6.20;67.50
76470;DHT22;65305;52.870;13.660;2023-03-14T05:12:57;6.20;67.50
76470;DHT22;65305;52.870;13.660;2023-03-14T05:15:25;6.20;67.30
76470;DHT22;65305;52.870;13.660;2023-03-14T05:17:51;6.20;67.30
76470;DHT22;65305;52.870;13.660;2023-03-14T05:20:18;6.20;67.40
76470;DHT22;65305;52.870;13.660;2023-03-14T05:22:44;6.20;67.50
76470;DHT22;65305;52.870;13.660;2023-03-14T05:25:10;6.20;67.20
76470;DHT22;65305;52.870;13.660;2023-03-14T05:27:36;6.20;67.20
76470;DHT22;65305;52.870;13.660;2023-03-14T05:30:03;6.20;67.10
76470;DHT22;65305;52.870;13.660;2023-03-14T05:32:30;6.30;67.30
76470;DHT22;65305;52.870;13.660;2023-03-14T05:34:57;6.20;67.20
76470;DHT22;65305;52.870;13.660;2023-03-14T05:37:25;6.20;67.10
76470;DHT22;65305;52.870;13.660;2023-03-14T05:39:51;6.20;67.20
76470;DHT22;65305;52.870;13.660;2023-03-14T05:42:17;6.20;67.40
76470;DHT22;65305;52.870;13.660;2023-03-14T05:44:43;6.20;67.50
76470;DHT22;65305;52.870;13.660;2023-03-14T05:47:10;6.20;67.50
76470;DHT22;65305;52.870;13.660;2023-03-14T05:49:36;6.20;67.60
76470;DHT22;65305;52.870;13.660;2023-03-14T05:52:02;6.30;67.40
76470;DHT22;65305;52.870;13.660;2023-03-14T05:54:35;6.30;67.30
76470;DHT22;65305;52.870;13.660;2023-03-14T05:57:02;6.30;67.30
76470;DHT22;65305;52.870;13.660;2023-03-14T05:59:29;6.20;67.40
76470;DHT22;65305;52.870;13.660;2023-03-14T06:01:56;6.30;67.40
76470;DHT22;65305;52.870;13.660;2023-03-14T06:04:23;6.30;67.50
76470;DHT22;65305;52.870;13.660;2023-03-14T06:06:49;6.30;67.50
76470;DHT22;65305;52.870;13.660;2023-03-14T06:09:16;6.30;67.10
76470;DHT22;65305;52.870;13.660;2023-03-14T06:11:45;6.30;67.10
76470;DHT22;65305;52.870;13.660;2023-03-14T06:14:12;6.30;67.30
76470;DHT22;65305;52.870;13.660;2023-03-14T06:16:38;6.30;67.30
76470;DHT22;65305;52.870;13.660;2023-03-14T06:19:05;6.30;67.20
76470;DHT22;65305;52.870;13.660;2023-03-14T06:21:32;6.30;67.10
76470;DHT22;65305;52.870;13.660;2023-03-14T06:23:59;6.30;66.90
76470;DHT22;65305;52.870;13.660;2023-03-14T06:26:26;6.30;67.30
76470;DHT22;65305;52.870;13.660;2023-03-14T06:28:52;6.30;67.40
76470;DHT22;65305;52.870;13.660;2023-03-14T06:31:19;6.30;67.10
76470;DHT22;65305;52.870;13.660;2023-03-14T06:33:46;6.30;67.10
76470;DHT22;65305;52.870;13.660;2023-03-14T06:36:12;6.30;66.90
76470;DHT22;65305;52.870;13.660;2023-03-14T06:38:39;6.30;67.00
76470;DHT22;65305;52.870;13.660;2023-03-14T06:41:06;6.30;67.20
76470;DHT22;65305;52.870;13.660;2023-03-14T06:43:33;6.30;67.40
76470;DHT22;65305;52.870;13.660;2023-03-14T06:45:59;6.30;67.50
76470;DHT22;65305;52.870;13.660;2023-03-14T06:48:26;6.30;67.50
76470;DHT22;65305;52.870;13.660;2023-03-14T06:50:52;6.30;67.50
76470;DHT22;65305;52.870;13.660;2023-03-14T06:53:19;6.30;67.30
76470;DHT22;65305;52.870;13.660;2023-03-14T06:55:45;6.30;67.30
76470;DHT22;65305;52.870;13.660;2023-03-14T06:58:12;6.30;67.50
76470;DHT22;65305;52.870;13.660;2023-03-14T07:00:38;6.30;67.60
76470;DHT22;65305;52.870;13.660;2023-03-14T07:03:05;6.30;67.70
76470;DHT22;65305;52.870;13.660;2023-03-14T07:05:32;6.30;67.60
76470;DHT22;65305;52.870;13.660;2023-03-14T07:07:58;6.30;67.40
76470;DHT22;65305;52.870;13.660;2023-03-14T07:10:25;6.30;67.70
76470;DHT22;65305;52.870;13.660;2023-03-14T07:12:51;6.30;67.80
76470;DHT22;65305;52.870;13.660;2023-03-14T07:15:18;6.30;68.00
76470;DHT22;65305;52.870;13.660;2023-03-14T07:17:45;6.30;68.20
76470;DHT22;65305;52.870;13.660;2023-03-14T07:20:14;6.30;68.20
76470;DHT22;65305;52.870;13.660;2023-03-14T07:22:40;6.30;68.20
76470;DHT22;65305;52.870;13.660;2023-03-14T07:25:07;6.30;67.80
76470;DHT22;65305;52.870;13.660;2023-03-14T07:27:35;6.30;67.80
76470;DHT22;65305;52.870;13.660;2023-03-14T07:30:01;6.30;68.20
76470;DHT22;65305;52.870;13.660;2023-03-14T07:32:28;6.30;68.20
76470;DHT22;65305;52.870;13.660;2023-03-14T07:34:54;6.30;67.90
76470;DHT22;65305;52.870;13.660;2023-03-14T07:37:21;6.30;67.80
76470;DHT22;65305;52.870;13.660;2023-03-14T07:39:47;6.30;68.20
76470;DHT22;65305;52.870;13.660;2023-03-14T07:42:14;6.30;68.20
76470;DHT22;65305;52.870;13.660;2023-03-14T07:44:40;6.30;68.20
76470;DHT22;65305;52.870;13.660;2023-03-14T07:47:07;6.30;68.30
76470;DHT22;65305;52.870;13.660;2023-03-14T07:49:33;6.30;68.30
76470;DHT22;65305;52.870;13.660;2023-03-14T07:52:00;6.30;68.30
76470;DHT22;65305;52.870;13.660;2023-03-14T07:54:26;6.40;68.30
76470;DHT22;65305;52.870;13.660;2023-03-14T07:56:53;6.40;68.30
76470;DHT22;65305;52.870;13.660;2023-03-14T07:59:19;6.30;67.50
76470;DHT22;65305;52.870;13.660;2023-03-14T08:01:46;6.30;68.00
76470;DHT22;65305;52.870;13.660;2023-03-14T08:04:12;6.40;68.40
76470;DHT22;65305;52.870;13.660;2023-03-14T08:06:39;6.40;68.30
76470;DHT22;65305;52.870;13.660;2023-03-14T08:09:05;6.30;68.20
76470;DHT22;65305;52.870;13.660;2023-03-14T08:11:32;6.40;68.30
76470;DHT22;65305;52.870;13.660;2023-03-14T08:13:58;6.40;68.40
76470;DHT22;65305;52.870;13.660;2023-03-14T08:16:25;6.40;67.50
76470;DHT22;65305;52.870;13.660;2023-03-14T08:18:51;6.40;68.00
76470;DHT22;65305;52.870;13.660;2023-03-14T08:21:18;6.40;68.40
76470;DHT22;65305;52.870;13.660;2023-03-14T08:23:44;6.40;68.00
76470;DHT22;65305;52.870;13.660;2023-03-14T08:26:11;6.40;68.80
76470;DHT22;65305;52.870;13.660;2023-03-14T08:28:37;6.40;68.70
76470;DHT22;65305;52.870;13.660;2023-03-14T08:31:04;6.40;68.60
76470;DHT22;65305;52.870;13.660;2023-03-14T08:33:30;6.40;68.50
76470;DHT22;65305;52.870;13.660;2023-03-14T08:35:57;6.40;68.50
76470;DHT22;65305;52.870;13.660;2023-03-14T08:38:24;6.40;68.50
76470;DHT22;65305;52.870;13.660;2023-03-14T08:41:00;6.40;68.50
76470;DHT22;65305;52.870;13.660;2023-03-14T08:43:27;6.40;68.30
76470;DHT22;65305;52.870;13.660;2023-03-14T08:45:58;6.40;68.20
76470;DHT22;65305;52.870;13.660;2023-03-14T08:48:25;6.40;68.20
76470;DHT22;65305;52.870;13.660;2023-03-14T08:50:51;6.40;68.20
76470;DHT22;65305;52.870;13.660;2023-03-14T08:53:17;6.40;68.20
76470;DHT22;65305;52.870;13.660;2023-03-14T08:55:44;6.40;68.50
76470;DHT22;65305;52.870;13.660;2023-03-14T08:58:10;6.40;68.40
76470;DHT22;65305;52.870;13.660;2023-03-14T09:00:37;6.40;68.50
76470;DHT22;65305;52.870;13.660;2023-03-14T09:03:03;6.40;68.40
76470;DHT22;65305;52.870;13.660;2023-03-14T09:05:32;6.40;67.70
76470;DHT22;65305;52.870;13.660;2023-03-14T09:07:58;6.40;68.50
76470;DHT22;65305;52.870;13.660;2023-03-14T09:10:25;6.40;68.20
76470;DHT22;65305;52.870;13.660;2023-03-14T09:12:51;6.40;68.70
76470;DHT22;65305;52.870;13.660;2023-03-14T09:15:18;6.40;68.60
76470;DHT22;65305;52.870;13.660;2023-03-14T09:17:44;6.40;68.90
76470;DHT22;65305;52.870;13.660;2023-03-14T09:20:11;6.40;69.00
76470;DHT22;65305;52.870;13.660;2023-03-14T09:22:38;6.40;69.00
76470;DHT22;65305;52.870;13.660;2023-03-14T09:25:04;6.40;69.00
76470;DHT22;65305;52.870;13.660;2023-03-14T09:27:31;6.50;69.00
76470;DHT22;65305;52.870;13.660;2023-03-14T09:29:58;6.50;68.90
76470;DHT22;65305;52.870;13.660;2023-03-14T09:32:24;6.50;69.00
76470;DHT22;65305;52.870;13.660;2023-03-14T09:34:51;6.50;69.00
76470;DHT22;65305;52.870;13.660;2023-03-14T09:37:17;6.50;69.00
76470;DHT22;65305;52.870;13.660;2023-03-14T09:39:45;6.50;69.00
76470;DHT22;65305;52.870;13.660;2023-03-14T09:42:13;6.50;69.00
76470;DHT22;65305;52.870;13.660;2023-03-14T09:44:45;6.50;69.00
76470;DHT22;65305;52.870;13.660;2023-03-14T09:47:15;6.50;68.90
76470;DHT22;65305;52.870;13.660;2023-03-14T09:49:42;6.50;68.80
76470;DHT22;65305;52.870;13.660;2023-03-14T09:52:17;6.50;68.90
76470;DHT22;65305;52.870;13.660;2023-03-14T09:54:49;6.50;69.00
76470;DHT22;65305;52.870;13.660;2023-03-14T09:57:17;6.50;68.20
76470;DHT22;65305;52.870;13.660;2023-03-14T09:59:45;6.50;68.80
76470;DHT22;65305;52.870;13.660;2023-03-14T10:02:21;6.50;69.10
76470;DHT22;65305;52.870;13.660;2023-03-14T10:04:48;6.50;68.70
76470;DHT22;65305;52.870;13.660;2023-03-14T10:07:16;6.50;69.00
76470;DHT22;65305;52.870;13.660;2023-03-14T10:09:48;6.50;69.20
76470;DHT22;65305;52.870;13.660;2023-03-14T10:12:15;6.50;69.50
76470;DHT22;65305;52.870;13.660;2023-03-14T10:14:46;6.50;69.00
76470;DHT22;65305;52.870;13.660;2023-03-14T10:17:15;6.50;68.50
76470;DHT22;65305;52.870;13.660;2023-03-14T10:19:55;6.50;68.60
76470;DHT22;65305;52.870;13.660;2023-03-14T10:22:23;6.50;68.90
76470;DHT22;65305;52.870;13.660;2023-03-14T10:24:54;6.50;69.10
76470;DHT22;65305;52.870;13.660;2023-03-14T10:27:27;6.50;68.80
76470;DHT22;65305;52.870;13.660;2023-03-14T10:29:55;6.50;69.30
76470;DHT22;65305;52.870;13.660;2023-03-14T10:32:23;6.50;69.00
76470;DHT22;65305;52.870;13.660;2023-03-14T10:35:05;6.50;69.10
76470;DHT22;65305;52.870;13.660;2023-03-14T10:37:33;6.50;68.60
76470;DHT22;65305;52.870;13.660;2023-03-14T10:40:01;6.50;68.80
76470;DHT22;65305;52.870;13.660;2023-03-14T10:42:32;6.50;68.70
76470;DHT22;65305;52.870;13.660;2023-03-14T10:47:52;6.50;68.30
76470;DHT22;65305;52.870;13.660;2023-03-14T10:50:25;6.60;68.00
76470;DHT22;65305;52.870;13.660;2023-03-14T10:52:52;6.50;67.80
76470;DHT22;65305;52.870;13.660;2023-03-14T10:55:19;6.60;68.30
76470;DHT22;65305;52.870;13.660;2023-03-14T10:57:46;6.60;68.50
76470;DHT22;65305;52.870;13.660;2023-03-14T11:00:17;6.50;68.30
76470;DHT22;65305;52.870;13.660;2023-03-14T11:08:20;6.60;68.10
76470;DHT22;65305;52.870;13.660;2023-03-14T11:11:07;6.60;68.60
76470;DHT22;65305;52.870;13.660;2023-03-14T11:13:40;6.60;68.70
76470;DHT22;65305;52.870;13.660;2023-03-14T11:16:14;6.60;68.60
76470;DHT22;65305;52.870;13.660;2023-03-14T11:19:09;6.60;68.50
76470;DHT22;65305;52.870;13.660;2023-03-14T11:26:55;6.60;68.00
76470;DHT22;65305;52.870;13.660;2023-03-14T11:29:29;6.60;67.90
76470;DHT22;65305;52.870;13.660;2023-03-14T11:31:57;6.60;68.40
76470;DHT22;65305;52.870;13.660;2023-03-14T11:34:27;6.60;68.20
76470;DHT22;65305;52.870;13.660;2023-03-14T11:36:59;6.60;68.40
76470;DHT22;65305;52.870;13.660;2023-03-14T11:39:29;6.60;68.40
76470;DHT22;65305;52.870;13.660;2023-03-14T11:41:58;6.60;68.30
76470;DHT22;65305;52.870;13.660;2023-03-14T11:44:30;6.60;68.20
76470;DHT22;65305;52.870;13.660;2023-03-14T11:49:30;6.60;68.00
76470;DHT22;65305;52.870;13.660;2023-03-14T11:52:00;6.60;67.90
76470;DHT22;65305;52.870;13.660;2023-03-14T11:54:39;6.70;68.00
76470;DHT22;65305;52.870;13.660;2023-03-14T11:57:18;6.60;68.30
76470;DHT22;65305;52.870;13.660;2023-03-14T12:08:02;6.60;68.20
76470;DHT22;65305;52.870;13.660;2023-03-14T12:13:10;6.60;68.20
76470;DHT22;65305;52.870;13.660;2023-03-14T12:15:41;6.70;68.00
76470;DHT22;65305;52.870;13.660;2023-03-14T12:18:17;6.70;68.40
76470;DHT22;65305;52.870;13.660;2023-03-14T12:20:53;6.70;68.20
76470;DHT22;65305;52.870;13.660;2023-03-14T12:23:21;6.70;68.40
76470;DHT22;65305;52.870;13.660;2023-03-14T12:25:47;6.60;68.70
76470;DHT22;65305;52.870;13.660;2023-03-14T12:28:20;6.70;68.90
76470;DHT22;65305;52.870;13.660;2023-03-14T12:30:47;6.70;68.40
76470;DHT22;65305;52.870;13.660;2023-03-14T12:33:20;6.70;68.20
76470;DHT22;65305;52.870;13.660;2023-03-14T12:35:49;6.70;67.90
76470;DHT22;65305;52.870;13.660;2023-03-14T12:43:31;6.70;68.40
76470;DHT22;65305;52.870;13.660;2023-03-14T12:46:14;6.70;68.40
76470;DHT22;65305;52.870;13.660;2023-03-14T12:48:43;6.70;68.90
76470;DHT22;65305;52.870;13.660;2023-03-14T12:51:15;6.70;69.00
76470;DHT22;65305;52.870;13.660;2023-03-14T13:01:40;6.70;69.30
76470;DHT22;65305;52.870;13.660;2023-03-14T13:04:12;6.70;69.30
76470;DHT22;65305;52.870;13.660;2023-03-14T13:06:47;6.70;69.30
76470;DHT22;65305;52.870;13.660;2023-03-14T13:12:11;6.70;69.40
76470;DHT22;65305;52.870;13.660;2023-03-14T13:14:41;6.70;69.60
76470;DHT22;65305;52.870;13.660;2023-03-14T13:17:10;6.70;69.60
76470;DHT22;65305;52.870;13.660;2023-03-14T13:19:37;6.70;69.70
76470;DHT22;65305;52.870;13.660;2023-03-14T13:22:05;6.70;69.70
76470;DHT22;65305;52.870;13.660;2023-03-14T13:24:35;6.70;69.70
76470;DHT22;65305;52.870;13.660;2023-03-14T13:27:01;6.70;69.80
76470;DHT22;65305;52.870;13.660;2023-03-14T13:29:29;6.70;69.80
76470;DHT22;65305;52.870;13.660;2023-03-14T13:32:01;6.70;69.90
76470;DHT22;65305;52.870;13.660;2023-03-14T13:34:29;6.80;70.00
76470;DHT22;65305;52.870;13.660;2023-03-14T13:36:56;6.70;69.90
76470;DHT22;65305;52.870;13.660;2023-03-14T13:39:24;6.80;70.10
76470;DHT22;65305;52.870;13.660;2023-03-14T13:41:51;6.80;69.80
76470;DHT22;65305;52.870;13.660;2023-03-14T13:44:26;6.70;69.80
76470;DHT22;65305;52.870;13.660;2023-03-14T13:46:57;6.80;70.00
76470;DHT22;65305;52.870;13.660;2023-03-14T13:49:25;6.80;70.00
76470;DHT22;65305;52.870;13.660;2023-03-14T13:51:52;6.80;69.80
76470;DHT22;65305;52.870;13.660;2023-03-14T13:54:20;6.80;69.90
76470;DHT22;65305;52.870;13.660;2023-03-14T13:56:47;6.80;70.10
76470;DHT22;65305;52.870;13.660;2023-03-14T14:02:12;6.80;69.80
76470;DHT22;65305;52.870;13.660;2023-03-14T14:04:41;6.80;70.10
76470;DHT22;65305;52.870;13.660;2023-03-14T14:07:10;6.80;70.20
76470;DHT22;65305;52.870;13.660;2023-03-14T14:09:40;6.80;70.20
76470;DHT22;65305;52.870;13.660;2023-03-14T14:14:48;6.80;70.40
76470;DHT22;65305;52.870;13.660;2023-03-14T14:17:18;6.80;70.40
76470;DHT22;65305;52.870;13.660;2023-03-14T14:19:47;6.80;70.30
76470;DHT22;65305;52.870;13.660;2023-03-14T14:22:14;6.80;70.30
76470;DHT22;65305;52.870;13.660;2023-03-14T14:24:41;6.80;70.10
76470;DHT22;65305;52.870;13.660;2023-03-14T14:27:08;6.80;70.10
76470;DHT22;65305;52.870;13.660;2023-03-14T14:29:35;6.80;69.90
76470;DHT22;65305;52.870;13.660;2023-03-14T14:34:38;6.80;70.20
76470;DHT22;65305;52.870;13.660;2023-03-14T14:37:13;6.80;69.90
76470;DHT22;65305;52.870;13.660;2023-03-14T14:39:41;6.80;69.80
76470;DHT22;65305;52.870;13.660;2023-03-14T14:42:12;6.80;69.40
76470;DHT22;65305;52.870;13.660;2023-03-14T14:44:39;6.80;69.30
76470;DHT22;65305;52.870;13.660;2023-03-14T14:47:11;6.80;69.70
76470;DHT22;65305;52.870;13.660;2023-03-14T14:49:39;6.90;69.90
76470;DHT22;65305;52.870;13.660;2023-03-14T14:52:11;6.80;69.90
76470;DHT22;65305;52.870;13.660;2023-03-14T14:54:46;6.90;69.50
76470;DHT22;65305;52.870;13.660;2023-03-14T14:57:20;6.80;69.20
76470;DHT22;65305;52.870;13.660;2023-03-14T14:59:48;6.90;69.10
76470;DHT22;65305;52.870;13.660;2023-03-14T15:02:24;6.90;69.00
76470;DHT22;65305;52.870;13.660;2023-03-14T15:04:54;6.90;68.80
76470;DHT22;65305;52.870;13.660;2023-03-14T15:07:21;6.90;68.60
76470;DHT22;65305;52.870;13.660;2023-03-14T15:09:47;6.90;68.60
76470;DHT22;65305;52.870;13.660;2023-03-14T15:12:13;6.90;68.60
76470;DHT22;65305;52.870;13.660;2023-03-14T15:14:40;6.90;68.60
76470;DHT22;65305;52.870;13.660;2023-03-14T15:17:09;6.90;68.70
76470;DHT22;65305;52.870;13.660;2023-03-14T15:19:37;6.90;68.70
76470;DHT22;65305;52.870;13.660;2023-03-14T15:22:07;6.90;68.70
76470;DHT22;65305;52.870;13.660;2023-03-14T15:24:36;6.90;68.70
76470;DHT22;65305;52.870;13.660;2023-03-14T15:27:02;6.90;68.80
76470;DHT22;65305;52.870;13.660;2023-03-14T15:29:29;6.90;68.90
76470;DHT22;65305;52.870;13.660;2023-03-14T15:31:55;6.90;68.90
76470;DHT22;65305;52.870;13.660;2023-03-14T15:34:22;7.00;69.50
76470;DHT22;65305;52.870;13.660;2023-03-14T15:36:48;6.90;70.50
76470;DHT22;65305;52.870;13.660;2023-03-14T15:39:15;6.90;70.90
76470;DHT22;65305;52.870;13.660;2023-03-14T15:41:42;6.90;71.60
76470;DHT22;65305;52.870;13.660;2023-03-14T15:44:08;7.00;71.20
76470;DHT22;65305;52.870;13.660;2023-03-14T15:46:35;7.00;71.60
76470;DHT22;65305;52.870;13.660;2023-03-14T15:49:01;7.00;72.10
76470;DHT22;65305;52.870;13.660;2023-03-14T15:51:28;7.00;72.10
76470;DHT22;65305;52.870;13.660;2023-03-14T15:53:55;7.00;71.60
76470;DHT22;65305;52.870;13.660;2023-03-14T15:56:22;7.00;71.40
76470;DHT22;65305;52.870;13.660;2023-03-14T15:58:50;6.90;70.90
76470;DHT22;65305;52.870;13.660;2023-03-14T16:01:17;6.90;70.50
76470;DHT22;65305;52.870;13.660;2023-03-14T16:03:44;6.90;70.10
76470;DHT22;65305;52.870;13.660;2023-03-14T16:06:11;6.90;69.80
76470;DHT22;65305;52.870;13.660;2023-03-14T16:08:38;6.90;69.40
76470;DHT22;65305;52.870;13.660;2023-03-14T16:11:04;6.90;69.10
76470;DHT22;65305;52.870;13.660;2023-03-14T16:13:31;6.80;68.90
76470;DHT22;65305;52.870;13.660;2023-03-14T16:15:59;6.80;68.70
76470;DHT22;65305;52.870;13.660;2023-03-14T16:18:29;6.90;68.40
76470;DHT22;65305;52.870;13.660;2023-03-14T16:21:00;6.90;68.20
76470;DHT22;65305;52.870;13.660;2023-03-14T16:23:28;6.80;68.00
76470;DHT22;65305;52.870;13.660;2023-03-14T16:25:55;6.80;68.00
76470;DHT22;65305;52.870;13.660;2023-03-14T16:28:22;6.80;67.80
76470;DHT22;65305;52.870;13.660;2023-03-14T16:30:48;6.80;67.70
76470;DHT22;65305;52.870;13.660;2023-03-14T16:33:15;6.80;67.70